WMT8HT LRSB-EDDN
Flight info
| Callsign | WMT8HT |
|---|---|
| Flight time | N/A |
| Altitude | 32000 |
| Route | ULMIN DCT TIXIP DCT TEGRI DCT GAZDA DCT ARSIN DCT SUBEN T161 AKINI Z109 UPALA UPALA1V |
| Aircraft | A320/M-SDE3FGHIRWY/LB1 |
Departure
| Time | 2026-05-08 08:08 |
|---|---|
| Airport | Sibiu International Airport (LRSB) |
Arrival
| Time | N/A |
|---|---|
| Airport | Nuremberg Airport (EDDN) |
| Time | Latitude | Longitude | Altitude | Speed | Heading |
|---|---|---|---|---|---|
| 2026-05-08 07:18 | 45.78845 | 24.09630 | 1460 ft | 0 kts | 31° |
| 2026-05-08 08:03 | 45.78846 | 24.09630 | 1460 ft | 1 kts | 31° |
| 2026-05-08 08:03 | 45.78846 | 24.09634 | 1457 ft | 0 kts | 58° |
| 2026-05-08 08:03 | 45.78844 | 24.09639 | 1457 ft | 0 kts | 95° |
| 2026-05-08 08:03 | 45.78841 | 24.09641 | 1457 ft | 1 kts | 135° |
| 2026-05-08 08:04 | 45.78824 | 24.09663 | 1459 ft | 5 kts | 137° |
| 2026-05-08 08:04 | 45.78795 | 24.09710 | 1460 ft | 7 kts | 111° |
| 2026-05-08 08:04 | 45.78791 | 24.09789 | 1460 ft | 8 kts | 108° |
| 2026-05-08 08:04 | 45.78748 | 24.09805 | 1460 ft | 7 kts | 188° |
| 2026-05-08 08:05 | 45.78696 | 24.09798 | 1460 ft | 5 kts | 182° |
| 2026-05-08 08:05 | 45.78691 | 24.09798 | 1460 ft | 1 kts | 182° |
| 2026-05-08 08:05 | 45.78672 | 24.09797 | 1459 ft | 5 kts | 181° |
| 2026-05-08 08:05 | 45.78619 | 24.09795 | 1459 ft | 9 kts | 181° |
| 2026-05-08 08:06 | 45.78565 | 24.09847 | 1457 ft | 12 kts | 102° |
| 2026-05-08 08:06 | 45.78563 | 24.09988 | 1454 ft | 16 kts | 91° |
| 2026-05-08 08:06 | 45.78546 | 24.10128 | 1452 ft | 11 kts | 114° |
| 2026-05-08 08:06 | 45.78532 | 24.10214 | 1450 ft | 4 kts | 81° |
| 2026-05-08 08:07 | 45.78556 | 24.10229 | 1448 ft | 3 kts | 341° |
| 2026-05-08 08:07 | 45.78563 | 24.10205 | 1448 ft | 2 kts | 271° |
| 2026-05-08 08:07 | 45.78562 | 24.10163 | 1451 ft | 14 kts | 269° |
| 2026-05-08 08:07 | 45.78568 | 24.09671 | 1463 ft | 83 kts | 271° |
| 2026-05-08 08:08 | 45.78586 | 24.08568 | 1480 ft | 134 kts | 271° |
| 2026-05-08 08:08 | 45.78613 | 24.07050 | 1593 ft | 166 kts | 273° |
| 2026-05-08 08:08 | 45.78638 | 24.05427 | 2227 ft | 161 kts | 272° |
| 2026-05-08 08:08 | 45.78661 | 24.03857 | 2862 ft | 158 kts | 272° |
| 2026-05-08 08:09 | 45.78680 | 24.02279 | 3348 ft | 160 kts | 272° |
| 2026-05-08 08:09 | 45.78707 | 24.00617 | 3457 ft | 177 kts | 272° |
| 2026-05-08 08:09 | 45.78745 | 23.98719 | 3638 ft | 204 kts | 272° |
| 2026-05-08 08:09 | 45.78787 | 23.96545 | 3902 ft | 232 kts | 271° |
| 2026-05-08 08:10 | 45.78824 | 23.94130 | 4284 ft | 257 kts | 271° |
| 2026-05-08 08:10 | 45.78853 | 23.91484 | 4969 ft | 267 kts | 271° |
| 2026-05-08 08:10 | 45.78881 | 23.88858 | 5993 ft | 265 kts | 270° |
| 2026-05-08 08:10 | 45.78912 | 23.86205 | 6907 ft | 266 kts | 270° |
| 2026-05-08 08:11 | 45.78956 | 23.83544 | 7833 ft | 267 kts | 270° |
| 2026-05-08 08:11 | 45.79003 | 23.80861 | 8636 ft | 271 kts | 270° |
| 2026-05-08 08:11 | 45.79044 | 23.78130 | 9432 ft | 276 kts | 270° |
| 2026-05-08 08:11 | 45.79084 | 23.75366 | 10192 ft | 280 kts | 270° |
| 2026-05-08 08:12 | 45.79121 | 23.72508 | 10488 ft | 301 kts | 270° |
| 2026-05-08 08:12 | 45.79158 | 23.69389 | 10809 ft | 318 kts | 270° |
| 2026-05-08 08:12 | 45.79196 | 23.66209 | 11457 ft | 323 kts | 270° |
| 2026-05-08 08:12 | 45.79235 | 23.62951 | 12188 ft | 326 kts | 270° |
| 2026-05-08 08:13 | 45.79390 | 23.59729 | 12906 ft | 329 kts | 277° |
| 2026-05-08 08:13 | 45.79724 | 23.56465 | 13658 ft | 331 kts | 277° |
| 2026-05-08 08:13 | 45.80054 | 23.53225 | 14318 ft | 333 kts | 277° |
| 2026-05-08 08:13 | 45.80383 | 23.49932 | 14926 ft | 335 kts | 277° |
| 2026-05-08 08:14 | 45.80713 | 23.46588 | 15506 ft | 338 kts | 277° |
| 2026-05-08 08:14 | 45.81042 | 23.43234 | 16125 ft | 341 kts | 276° |
| 2026-05-08 08:14 | 45.81362 | 23.39888 | 16759 ft | 343 kts | 274° |
| 2026-05-08 08:14 | 45.81498 | 23.36456 | 17361 ft | 344 kts | 270° |
| 2026-05-08 08:15 | 45.81616 | 23.33000 | 17979 ft | 347 kts | 271° |
| 2026-05-08 08:15 | 45.81733 | 23.29533 | 18545 ft | 350 kts | 271° |
| 2026-05-08 08:15 | 45.81850 | 23.26080 | 19074 ft | 352 kts | 271° |
| 2026-05-08 08:15 | 45.81969 | 23.22545 | 19635 ft | 353 kts | 271° |
| 2026-05-08 08:16 | 45.82087 | 23.19009 | 20199 ft | 355 kts | 271° |
| 2026-05-08 08:16 | 45.82201 | 23.15495 | 20719 ft | 357 kts | 271° |
| 2026-05-08 08:16 | 45.82318 | 23.11919 | 21239 ft | 359 kts | 271° |
| 2026-05-08 08:16 | 45.82438 | 23.08325 | 21749 ft | 361 kts | 271° |
| 2026-05-08 08:17 | 45.82555 | 23.04761 | 22246 ft | 363 kts | 271° |
| 2026-05-08 08:17 | 45.82671 | 23.01131 | 22785 ft | 364 kts | 271° |
| 2026-05-08 08:17 | 45.82786 | 22.97476 | 23328 ft | 365 kts | 271° |
| 2026-05-08 08:17 | 45.82897 | 22.93851 | 23812 ft | 366 kts | 271° |
| 2026-05-08 08:18 | 45.83010 | 22.90175 | 24219 ft | 368 kts | 271° |
| 2026-05-08 08:18 | 45.83122 | 22.86514 | 24615 ft | 370 kts | 271° |
| 2026-05-08 08:18 | 45.83234 | 22.82801 | 25011 ft | 372 kts | 271° |
| 2026-05-08 08:18 | 45.83343 | 22.79096 | 25387 ft | 374 kts | 271° |
| 2026-05-08 08:19 | 45.83447 | 22.75375 | 25793 ft | 376 kts | 270° |
| 2026-05-08 08:19 | 45.83551 | 22.71611 | 26181 ft | 378 kts | 270° |
| 2026-05-08 08:19 | 45.83664 | 22.67828 | 26566 ft | 380 kts | 272° |
| 2026-05-08 08:19 | 45.84063 | 22.64098 | 26936 ft | 385 kts | 281° |
| 2026-05-08 08:20 | 45.84950 | 22.60418 | 27307 ft | 390 kts | 289° |
| 2026-05-08 08:20 | 45.85977 | 22.56846 | 27693 ft | 391 kts | 289° |
| 2026-05-08 08:20 | 45.87011 | 22.53221 | 28068 ft | 393 kts | 288° |
| 2026-05-08 08:20 | 45.88047 | 22.49565 | 28440 ft | 395 kts | 288° |
| 2026-05-08 08:21 | 45.89080 | 22.45901 | 28809 ft | 397 kts | 288° |
| 2026-05-08 08:21 | 45.90119 | 22.42213 | 29176 ft | 400 kts | 288° |
| 2026-05-08 08:21 | 45.91161 | 22.38507 | 29540 ft | 402 kts | 288° |
| 2026-05-08 08:21 | 45.92213 | 22.34765 | 29908 ft | 404 kts | 288° |
| 2026-05-08 08:22 | 45.93258 | 22.31053 | 30250 ft | 406 kts | 288° |
| 2026-05-08 08:22 | 45.94320 | 22.27273 | 30569 ft | 408 kts | 288° |
| 2026-05-08 08:22 | 45.95376 | 22.23509 | 30905 ft | 409 kts | 288° |
| 2026-05-08 08:22 | 45.96439 | 22.19717 | 31340 ft | 407 kts | 288° |
| 2026-05-08 08:23 | 45.97494 | 22.15933 | 31785 ft | 406 kts | 288° |
| 2026-05-08 08:23 | 45.98533 | 22.12198 | 32025 ft | 406 kts | 287° |
| 2026-05-08 08:23 | 45.99573 | 22.08457 | 32072 ft | 397 kts | 287° |
| 2026-05-08 08:24 | 46.01604 | 22.01167 | 32074 ft | 390 kts | 287° |
| 2026-05-08 08:24 | 46.03604 | 21.93960 | 32073 ft | 389 kts | 287° |
| 2026-05-08 08:25 | 46.05589 | 21.86745 | 32072 ft | 389 kts | 287° |
| 2026-05-08 08:25 | 46.07584 | 21.79479 | 32068 ft | 389 kts | 287° |
| 2026-05-08 08:26 | 46.09568 | 21.72252 | 32067 ft | 389 kts | 287° |
| 2026-05-08 08:26 | 46.11549 | 21.65010 | 32066 ft | 389 kts | 287° |
| 2026-05-08 08:27 | 46.13528 | 21.57743 | 32066 ft | 389 kts | 287° |
| 2026-05-08 08:27 | 46.15496 | 21.50509 | 32105 ft | 388 kts | 287° |
| 2026-05-08 08:28 | 46.17456 | 21.43303 | 32105 ft | 387 kts | 287° |
| 2026-05-08 08:28 | 46.19415 | 21.36052 | 32119 ft | 386 kts | 287° |
| 2026-05-08 08:29 | 46.21361 | 21.28827 | 32109 ft | 385 kts | 287° |
| 2026-05-08 08:29 | 46.23290 | 21.21645 | 32127 ft | 384 kts | 287° |
| 2026-05-08 08:30 | 46.25205 | 21.14490 | 32113 ft | 383 kts | 287° |
| 2026-05-08 08:30 | 46.28297 | 21.03858 | 32104 ft | 383 kts | 290° |
| 2026-05-08 08:31 | 46.30641 | 20.96925 | 32100 ft | 383 kts | 291° |
| 2026-05-08 08:31 | 46.32966 | 20.90019 | 32094 ft | 383 kts | 290° |
| 2026-05-08 08:32 | 46.35236 | 20.83095 | 32110 ft | 382 kts | 290° |
| 2026-05-08 08:32 | 46.37495 | 20.76102 | 32104 ft | 381 kts | 290° |
| 2026-05-08 08:33 | 46.39737 | 20.69163 | 32100 ft | 381 kts | 290° |
| 2026-05-08 08:33 | 46.41975 | 20.62232 | 32100 ft | 381 kts | 290° |
| 2026-05-08 08:34 | 46.44200 | 20.55293 | 32095 ft | 381 kts | 290° |
| 2026-05-08 08:34 | 46.46444 | 20.48308 | 32118 ft | 381 kts | 290° |
| 2026-05-08 08:35 | 46.48670 | 20.41368 | 32107 ft | 380 kts | 290° |
| 2026-05-08 08:35 | 46.50890 | 20.34436 | 32099 ft | 379 kts | 290° |
| 2026-05-08 08:36 | 46.53105 | 20.27477 | 32102 ft | 379 kts | 290° |
| 2026-05-08 08:36 | 46.55312 | 20.20535 | 32097 ft | 379 kts | 290° |
| 2026-05-08 08:37 | 46.57498 | 20.13611 | 32095 ft | 378 kts | 289° |
| 2026-05-08 08:37 | 46.59698 | 20.06631 | 32094 ft | 378 kts | 289° |
| 2026-05-08 08:38 | 46.61880 | 19.99704 | 32092 ft | 378 kts | 289° |
| 2026-05-08 08:38 | 46.64069 | 19.92746 | 32091 ft | 378 kts | 289° |
| 2026-05-08 08:39 | 46.66245 | 19.85817 | 32087 ft | 378 kts | 289° |
| 2026-05-08 08:39 | 46.68421 | 19.78847 | 32110 ft | 378 kts | 289° |
| 2026-05-08 08:40 | 46.70588 | 19.71869 | 32104 ft | 377 kts | 289° |
| 2026-05-08 08:40 | 46.72754 | 19.64902 | 32133 ft | 377 kts | 289° |
| 2026-05-08 08:41 | 46.74915 | 19.57929 | 32116 ft | 377 kts | 289° |
| 2026-05-08 08:41 | 46.77060 | 19.50979 | 32104 ft | 377 kts | 289° |
| 2026-05-08 08:42 | 46.79209 | 19.43999 | 32117 ft | 376 kts | 289° |
| 2026-05-08 08:42 | 46.81341 | 19.37038 | 32105 ft | 376 kts | 289° |
| 2026-05-08 08:43 | 46.83447 | 19.30103 | 32098 ft | 376 kts | 289° |
| 2026-05-08 08:43 | 46.85558 | 19.23102 | 32095 ft | 375 kts | 289° |
| 2026-05-08 08:44 | 46.87658 | 19.16121 | 32093 ft | 375 kts | 289° |
| 2026-05-08 08:44 | 46.89755 | 19.09150 | 32107 ft | 375 kts | 289° |
| 2026-05-08 08:45 | 46.91859 | 19.02161 | 32100 ft | 375 kts | 289° |
| 2026-05-08 08:45 | 46.93941 | 18.95198 | 32096 ft | 375 kts | 289° |
| 2026-05-08 08:46 | 46.96023 | 18.88222 | 32095 ft | 375 kts | 289° |
| 2026-05-08 08:46 | 46.98112 | 18.81209 | 32096 ft | 375 kts | 289° |
| 2026-05-08 08:47 | 47.00193 | 18.74191 | 32103 ft | 375 kts | 289° |
| 2026-05-08 08:47 | 47.02244 | 18.67224 | 32100 ft | 375 kts | 289° |
| 2026-05-08 08:48 | 47.04323 | 18.60184 | 32096 ft | 375 kts | 289° |
| 2026-05-08 08:48 | 47.06391 | 18.53157 | 32095 ft | 375 kts | 289° |
| 2026-05-08 08:49 | 47.08444 | 18.46154 | 32094 ft | 375 kts | 289° |
| 2026-05-08 08:49 | 47.10491 | 18.39140 | 32114 ft | 375 kts | 289° |
| 2026-05-08 08:50 | 47.12548 | 18.32097 | 32099 ft | 375 kts | 289° |
| 2026-05-08 08:50 | 47.14602 | 18.25034 | 32102 ft | 375 kts | 289° |
| 2026-05-08 08:51 | 47.16635 | 18.18019 | 32100 ft | 375 kts | 289° |
| 2026-05-08 08:51 | 47.18335 | 18.12139 | 32102 ft | 375 kts | 289° |
| 2026-05-08 08:52 | 47.20711 | 18.03900 | 32086 ft | 375 kts | 289° |
| 2026-05-08 08:52 | 47.22401 | 17.98014 | 32099 ft | 376 kts | 289° |
| 2026-05-08 08:53 | 47.24438 | 17.90909 | 32105 ft | 376 kts | 289° |
| 2026-05-08 08:53 | 47.26469 | 17.83804 | 32096 ft | 377 kts | 289° |
| 2026-05-08 08:54 | 47.28507 | 17.76649 | 32099 ft | 378 kts | 289° |
| 2026-05-08 08:54 | 47.30522 | 17.69553 | 32098 ft | 378 kts | 289° |
| 2026-05-08 08:55 | 47.32556 | 17.62381 | 32105 ft | 378 kts | 289° |
| 2026-05-08 08:55 | 47.34572 | 17.55246 | 32099 ft | 378 kts | 289° |
| 2026-05-08 08:56 | 47.36599 | 17.48055 | 32095 ft | 378 kts | 289° |
| 2026-05-08 08:56 | 47.38604 | 17.40897 | 32092 ft | 378 kts | 289° |
| 2026-05-08 08:57 | 47.40608 | 17.33728 | 32094 ft | 378 kts | 289° |
| 2026-05-08 08:57 | 47.42608 | 17.26574 | 32094 ft | 378 kts | 289° |
| 2026-05-08 08:58 | 47.44614 | 17.19371 | 32091 ft | 378 kts | 289° |
| 2026-05-08 08:58 | 47.46620 | 17.12163 | 32089 ft | 378 kts | 289° |
| 2026-05-08 08:59 | 47.48601 | 17.04984 | 32098 ft | 378 kts | 289° |
| 2026-05-08 08:59 | 47.50578 | 16.97806 | 32101 ft | 379 kts | 288° |
| 2026-05-08 09:00 | 47.52566 | 16.90556 | 32115 ft | 379 kts | 288° |
| 2026-05-08 09:00 | 47.54539 | 16.83337 | 32109 ft | 380 kts | 288° |
| 2026-05-08 09:01 | 47.56515 | 16.76077 | 32103 ft | 380 kts | 288° |
| 2026-05-08 09:01 | 47.58496 | 16.68870 | 32103 ft | 380 kts | 289° |
| 2026-05-08 09:02 | 47.60486 | 16.61621 | 32107 ft | 380 kts | 288° |
| 2026-05-08 09:02 | 47.62462 | 16.54332 | 32107 ft | 380 kts | 288° |
| 2026-05-08 09:03 | 47.64423 | 16.47072 | 32113 ft | 381 kts | 288° |
| 2026-05-08 09:03 | 47.66401 | 16.39751 | 32112 ft | 381 kts | 288° |
| 2026-05-08 09:04 | 47.68355 | 16.32489 | 32111 ft | 380 kts | 288° |
| 2026-05-08 09:04 | 47.70317 | 16.25195 | 32112 ft | 380 kts | 288° |
| 2026-05-08 09:05 | 47.72270 | 16.17880 | 32110 ft | 380 kts | 288° |
| 2026-05-08 09:05 | 47.74215 | 16.10587 | 32111 ft | 381 kts | 288° |
| 2026-05-08 09:06 | 47.76159 | 16.03281 | 32110 ft | 381 kts | 288° |
| 2026-05-08 09:06 | 47.78107 | 15.95931 | 32117 ft | 381 kts | 288° |
| 2026-05-08 09:07 | 47.80035 | 15.88620 | 32120 ft | 381 kts | 288° |
| 2026-05-08 09:07 | 47.81975 | 15.81273 | 32117 ft | 381 kts | 288° |
| 2026-05-08 09:08 | 47.83895 | 15.73952 | 32122 ft | 381 kts | 288° |
| 2026-05-08 09:08 | 47.85821 | 15.66590 | 32118 ft | 381 kts | 288° |
| 2026-05-08 09:09 | 47.87729 | 15.59260 | 32115 ft | 381 kts | 288° |
| 2026-05-08 09:09 | 47.89651 | 15.51864 | 32116 ft | 381 kts | 288° |
| 2026-05-08 09:10 | 47.91561 | 15.44509 | 32113 ft | 381 kts | 288° |
| 2026-05-08 09:10 | 47.93459 | 15.37169 | 32107 ft | 381 kts | 287° |
| 2026-05-08 09:11 | 47.95362 | 15.29765 | 32095 ft | 381 kts | 287° |
| 2026-05-08 09:11 | 47.97255 | 15.22400 | 32106 ft | 382 kts | 287° |
| 2026-05-08 09:12 | 47.99155 | 15.14956 | 32108 ft | 382 kts | 287° |
| 2026-05-08 09:12 | 48.01032 | 15.07587 | 32103 ft | 382 kts | 287° |
| 2026-05-08 09:13 | 48.02921 | 15.00172 | 32105 ft | 382 kts | 287° |
| 2026-05-08 09:13 | 48.04810 | 14.92728 | 32097 ft | 383 kts | 287° |
| 2026-05-08 09:14 | 48.06693 | 14.85253 | 32102 ft | 384 kts | 287° |
| 2026-05-08 09:14 | 48.08574 | 14.77794 | 32108 ft | 384 kts | 287° |
| 2026-05-08 09:15 | 48.10450 | 14.70335 | 32110 ft | 384 kts | 287° |
| 2026-05-08 09:15 | 48.12317 | 14.62860 | 32125 ft | 384 kts | 287° |
| 2026-05-08 09:16 | 48.14192 | 14.55349 | 32120 ft | 385 kts | 287° |
| 2026-05-08 09:16 | 48.16058 | 14.47842 | 32121 ft | 385 kts | 287° |
| 2026-05-08 09:17 | 48.17913 | 14.40319 | 32129 ft | 386 kts | 287° |
| 2026-05-08 09:17 | 48.19771 | 14.32762 | 32127 ft | 386 kts | 287° |
| 2026-05-08 09:18 | 48.21624 | 14.25213 | 32132 ft | 387 kts | 287° |
| 2026-05-08 09:18 | 48.23476 | 14.17655 | 32127 ft | 388 kts | 287° |